Aérodrome :
LOGIN :

S'inscrire | Disclaimer

   EN    FR    IT 

 










Légende :    VFR   VFR Marginal   IFR   IFR Intensif   IFR Très Intensif
Visi : 
Plafond : 
>= 8 km
>= 3000ft
5 à 8 km
1000 à 3000 ft
1500m à 5 km
500 à 1000 ft
800 à 1500m
200 à 500 ft
< 800m
< 200 ft
Symboles :   Orages  Brouillard  Fortes neiges  Fortes précipitations  Vent > 20 kt
SIGMETs :   Divers  Orages  Givrage  Turbulence  Onde Orograph.  Cendres Volcan.







- Altitude de l'aérodrome : 33 ft
- Code IATA : MHZ


EGUN - RAF Mildenhall

DERNIER METAR :
  • 240556Z AUTO 24010KT 9999 FEW110 11/11 A2993 RMK AO2 SLP138 T01140114 10125 20113 53005 $

METARs EXPIRÉS :
  • 240456Z AUTO 23010KT 9999 SCT130 12/12 A2990 RMK AO2 SLP128 T01150115 $
  • 240356Z AUTO 23009KT 9999 BKN150 12/12 A2990 RMK AO2 SLP128 T01160116 $

TAF AMD TAF EGUN
Valide du 24 à 05h jusqu'au 25 à 10h UTC


240509Z 2405/2510 23012KT 8000 -SHRA SCT010 BKN020 620806 QNH2987INS
TEMPO 2405/2412 23012G20KT BKN015
BECMG 2411/2412 24012KT 6000 -RA BKN010 620608 QNH2982INS
BECMG 2417/2418 21012G20KT 8000 -SHRA SCT008 BKN010 620806 QNH2974INS
TEMPO 2420/2424 23015G25KT
BECMG 2500/2501 26012KT 8000 -SHRA BKN007 BKN010 620608 QNH2971INS TX13/2415Z TN06/2405Z
Pas de NOTAMs connus pour ce terrain.



MET'MAP, la Météo Aéronautique d'un coup d'oeil ! - Copyright ORBIFLY Décembre 2007 - Disclaimer

ORBIFLY MET'MAP TEAM :

Programmation & Développement : Alexandra Zaïnal
Conception & Développement : Baudouin d'Aumeries
Co-Programmation & Développement : Marc-Olivier Méhu
Soutien technique & logistique : Manuel Goepfert

Contact : metmap@orbifly.com




SOURCES & CREDITS :

   NOAA